Hauptseite
METAR-TAF:

METAR-TAF

Flughäfen :

Bad Vöslau, Österreich

Flugplatz Vöslau-Kottingbrunn

Breite: 47-57-52N, Länge: 016-15-34E, Höhe: 233 m

Beobachtung

Neuester Wetterbericht von vor 23 Minuten, um 17:00 UTC
Wind 5 kt aus Nord/Nordwest
Temperatur 11°C
Luftfeuchtigkeit 43%
Luftdruck

METAR: LOAV 291700Z 34005KT 35KM SCT060CU 11/M01

Zeit: 19:23 (17:23 UTC)

Prognose

Neuester Wetterbericht von vor 5 Stunden und 58 Minuten, um 11:25 UTC
Gültige Prognose vom 29 um 12 UTC bis 29 um 21 UTC
Wind 10 kt aus Nordwest
Sichtweite 10 km oder mehr
Durchbrochene Bewölkung in der Höhe von 4000 ft
Zeitweise
vom 29 um 12 UTC bis 29 um 15 UTC
Wind 15 kt aus Nordwest
Übergehend zu
vom 29 um 16 UTC bis 29 um 18 UTC
Wind 2 kt aus unterschiedlichen Richtungen

TAF: LOAV 291125Z 2912/2921 32010KT 9999 BKN040 TEMPO 2912/2915 32015KT BECMG 2916/2918 VRB02KT

Wetterbeobachtungen und Prognosen von mehr als 4000 Flughäfen (METAR und TAF Bericht).

Die verfügbaren Stationen werden durch gelbe und rote Markierungen auf der Karte dargestellt.

Führen Sie die Maus auf sie, um den Namen der Station zu sehen.

Darauf klicken, um die Beobachtung von Wetterbeobachtungen und Prognosen zu sehen.

Um die Karte zu ändern : klicken Sie auf den grünen Tasten mit einem schwarzen Kreuz Zum Vergrößern, auf den grünen Button mit einem Gedankenstrich zu verkleinern, oder auf die grünen Pfeile für benachbarte Karten.


METAR-TAF: